createdAt,value
2022-08-10T00:01:52.813Z,72.61
2022-08-10T00:04:22.689Z,72.97
2022-08-10T00:06:52.925Z,73.54
2022-08-10T00:09:21.918Z,73.38
2022-08-10T00:11:50.568Z,73.64
2022-08-10T00:14:19.002Z,73.68
2022-08-10T00:16:47.818Z,74.04
2022-08-10T00:19:18.215Z,74.02
2022-08-10T00:21:47.422Z,74.58
2022-08-10T00:24:16.553Z,74.40
2022-08-10T00:28:01.504Z,74.66
2022-08-10T00:29:34.074Z,74.76
2022-08-10T00:32:03.072Z,74.90
2022-08-10T00:34:34.712Z,75.42
2022-08-10T00:37:03.124Z,75.26
2022-08-10T00:39:36.192Z,75.69
2022-08-10T00:42:08.590Z,75.40
2022-08-10T00:44:38.540Z,76.38
2022-08-10T00:47:21.323Z,76.03
2022-08-10T00:49:58.248Z,76.55
2022-08-10T00:52:28.397Z,76.55
2022-08-10T00:54:57.472Z,76.59
2022-08-10T00:57:26.546Z,76.98
2022-08-10T00:59:58.430Z,77.43
2022-08-10T01:02:30.558Z,77.18
2022-08-10T01:05:02.605Z,78.13
2022-08-10T01:07:46.706Z,78.52
2022-08-10T01:10:28.190Z,78.45
2022-08-10T01:13:05.660Z,78.54
2022-08-10T01:15:41.769Z,78.86
2022-08-10T01:18:14.741Z,78.76
2022-08-10T01:20:59.261Z,79.22
2022-08-10T01:23:54.898Z,79.41
2022-08-10T01:26:55.474Z,79.69
2022-08-10T01:29:55.024Z,80.58
2022-08-10T01:32:32.363Z,80.54
2022-08-10T01:35:11.228Z,80.70
2022-08-10T01:37:51.941Z,80.95
2022-08-10T01:40:25.730Z,81.37
2022-08-10T01:42:59.559Z,81.14
2022-08-10T01:45:45.513Z,81.33
2022-08-10T01:48:31.107Z,81.63
2022-08-10T01:51:06.062Z,82.01
2022-08-10T01:53:40.980Z,81.88
2022-08-10T01:56:13.625Z,82.46
2022-08-10T01:58:43.443Z,82.43
2022-08-10T02:01:17.680Z,82.73
2022-08-10T02:04:04.683Z,82.99
2022-08-10T02:06:38.388Z,82.80
2022-08-10T02:09:09.192Z,83.40
2022-08-10T02:11:55.632Z,83.21
2022-08-10T02:14:34.131Z,83.66
2022-08-10T02:17:08.709Z,83.75
2022-08-10T02:19:39.973Z,83.77
2022-08-10T02:22:45.756Z,83.95
2022-08-10T02:25:03.282Z,84.17
2022-08-10T02:27:34.081Z,84.48
2022-08-10T02:30:03.797Z,85.01
2022-08-10T02:32:37.791Z,85.02
2022-08-10T02:35:13.961Z,85.50
2022-08-10T02:37:54.039Z,84.97
2022-08-10T02:45:12.667Z,85.38
2022-08-10T02:45:18.929Z,85.80
2022-08-10T02:46:14.150Z,85.73
2022-08-10T02:48:52.738Z,86.36
2022-08-10T02:52:07.971Z,85.74
2022-08-10T02:54:16.814Z,86.33
2022-08-10T02:56:56.990Z,86.82
2022-08-10T02:59:39.951Z,86.82
2022-08-10T03:02:15.490Z,87.50
2022-08-10T03:04:55.344Z,88.48
2022-08-10T03:07:43.230Z,88.75
2022-08-10T03:10:18.355Z,88.99
2022-08-10T03:12:51.889Z,89.17
2022-08-10T03:15:22.497Z,89.58
2022-08-10T03:17:57.794Z,89.73
2022-08-10T03:20:37.374Z,90.38
2022-08-10T03:23:12.443Z,90.48
2022-08-10T03:25:53.197Z,90.33
2022-08-10T03:28:23.949Z,90.68
2022-08-10T03:30:53.969Z,90.97
2022-08-10T03:33:23.758Z,91.42
2022-08-10T03:36:41.485Z,91.37
2022-08-10T03:38:44.427Z,91.53
2022-08-10T03:41:16.189Z,91.85
2022-08-10T03:43:47.557Z,91.76
2022-08-10T03:46:19.392Z,92.42
2022-08-10T03:48:50.918Z,92.58
2022-08-10T03:51:21.398Z,92.95
2022-08-10T03:54:04.399Z,93.17
2022-08-10T03:56:37.559Z,92.99
2022-08-10T03:59:07.302Z,93.19
2022-08-10T04:02:43.821Z,93.26
2022-08-10T04:04:25.899Z,93.46
2022-08-10T04:06:57.928Z,93.67
2022-08-10T04:09:53.271Z,94.01
2022-08-10T04:12:20.048Z,94.00
2022-08-10T04:14:50.751Z,93.95
2022-08-10T04:17:59.310Z,94.24
2022-08-10T04:20:17.969Z,94.54
2022-08-10T04:22:50.915Z,94.64
2022-08-10T04:25:20.485Z,94.64
2022-08-10T04:27:49.897Z,95.15
2022-08-10T04:30:18.770Z,94.81
2022-08-10T04:32:51.036Z,95.08
2022-08-10T04:35:22.289Z,95.42
2022-08-10T04:37:53.283Z,95.32
2022-08-10T04:40:28.798Z,95.40
2022-08-10T04:43:11.274Z,95.48
2022-08-10T04:45:47.293Z,95.76
2022-08-10T04:48:43.228Z,95.90
2022-08-10T04:51:15.328Z,95.74
2022-08-10T04:54:06.124Z,96.07
2022-08-10T04:56:39.631Z,96.41
2022-08-10T04:59:11.187Z,96.56
2022-08-10T05:02:27.131Z,96.70
2022-08-10T05:04:34.346Z,96.71
2022-08-10T05:07:16.455Z,96.97
2022-08-10T05:10:02.606Z,97.29
2022-08-10T05:12:36.200Z,97.37
2022-08-10T05:15:07.687Z,97.94
2022-08-10T05:17:36.612Z,98.02
2022-08-10T05:20:07.595Z,98.08
2022-08-10T05:22:37.508Z,97.94
2022-08-10T05:25:12.887Z,98.41
2022-08-10T05:27:42.366Z,98.33
2022-08-10T05:30:14.362Z,98.20
2022-08-10T05:32:56.755Z,98.38
2022-08-10T05:35:56.350Z,98.36
2022-08-10T05:38:23.427Z,98.49
2022-08-10T05:40:53.717Z,98.51
2022-08-10T05:43:28.272Z,98.48
2022-08-10T05:46:18.958Z,98.58
2022-08-10T05:48:59.569Z,98.79
2022-08-10T05:51:33.352Z,98.51
2022-08-10T05:54:06.819Z,98.86
2022-08-10T05:56:53.809Z,98.46
2022-08-10T06:00:29.388Z,98.57
2022-08-10T06:02:41.306Z,98.89
2022-08-10T06:05:12.418Z,99.11
2022-08-10T06:07:43.613Z,98.93
2022-08-10T06:10:31.371Z,99.02
2022-08-10T06:13:30.087Z,98.73
2022-08-10T06:16:08.005Z,98.59
2022-08-10T06:18:37.351Z,98.70
2022-08-10T06:21:06.780Z,98.75
2022-08-10T06:23:35.704Z,98.76
2022-08-10T06:26:10.993Z,98.75
2022-08-10T06:28:56.049Z,99.14
2022-08-10T06:31:48.364Z,98.98
2022-08-10T06:34:22.174Z,99.22
2022-08-10T06:36:52.922Z,98.70
2022-08-10T06:39:34.175Z,98.63
2022-08-10T06:42:15.506Z,98.70
2022-08-10T06:44:58.527Z,98.23
2022-08-10T06:47:33.391Z,98.87
2022-08-10T06:50:09.403Z,98.99
2022-08-10T06:52:39.170Z,98.55
2022-08-10T06:55:11.972Z,98.72
2022-08-10T06:57:45.806Z,98.36
2022-08-10T07:00:33.844Z,98.30
2022-08-10T07:03:08.111Z,98.20
2022-08-10T07:05:40.489Z,97.91
2022-08-10T07:08:11.896Z,97.40
2022-08-10T07:10:46.134Z,97.85
2022-08-10T07:14:17.237Z,98.20
2022-08-10T07:16:12.207Z,97.47
2022-08-10T07:18:43.383Z,97.23
2022-08-10T07:21:14.383Z,97.79
2022-08-10T07:23:59.272Z,97.36
2022-08-10T07:26:31.298Z,97.60
2022-08-10T07:29:01.450Z,97.41
2022-08-10T07:31:57.371Z,97.60
2022-08-10T07:34:29.805Z,97.37
2022-08-10T07:37:03.092Z,97.04
2022-08-10T07:39:59.603Z,96.92
2022-08-10T07:42:31.333Z,96.76
2022-08-10T07:45:00.335Z,96.27
2022-08-10T07:47:53.957Z,96.12
2022-08-10T07:50:26.442Z,96.07
2022-08-10T07:52:58.081Z,96.08
2022-08-10T07:56:05.054Z,96.05
2022-08-10T07:58:18.534Z,95.78
2022-08-10T08:00:53.189Z,95.51
2022-08-10T08:03:27.370Z,95.46
2022-08-10T08:06:03.123Z,95.43
2022-08-10T08:08:38.978Z,94.90
2022-08-10T08:11:08.844Z,95.28
2022-08-10T08:13:39.674Z,94.89
2022-08-10T08:16:18.097Z,94.36
2022-08-10T08:24:10.687Z,94.75
2022-08-10T08:24:38.928Z,94.40
2022-08-10T08:27:08.638Z,94.61
2022-08-10T08:29:43.182Z,94.46
2022-08-10T08:32:12.737Z,94.42
2022-08-10T08:34:47.334Z,94.26
2022-08-10T08:37:18.850Z,94.62
2022-08-10T08:40:11.564Z,94.77
2022-08-10T08:42:55.980Z,93.70
2022-08-10T08:45:34.416Z,93.51
2022-08-10T08:48:17.344Z,92.90
2022-08-10T08:51:08.631Z,93.01
2022-08-10T08:54:02.679Z,92.82
2022-08-10T08:56:36.613Z,91.92
2022-08-10T08:59:19.087Z,92.85
2022-08-10T09:02:08.136Z,93.25
2022-08-10T09:04:57.279Z,92.70
2022-08-10T09:08:00.126Z,92.16
2022-08-10T09:10:39.531Z,92.04
2022-08-10T09:13:15.036Z,91.75
2022-08-10T09:15:52.605Z,90.54
2022-08-10T09:18:24.942Z,89.96
2022-08-10T09:21:00.129Z,89.64
2022-08-10T09:24:05.177Z,87.96
2022-08-10T09:26:48.244Z,87.63
2022-08-10T09:29:25.960Z,87.55
2022-08-10T09:36:17.198Z,87.55
2022-08-10T09:36:27.004Z,85.52
2022-08-10T09:38:03.508Z,85.01
2022-08-10T09:40:59.482Z,84.94
2022-08-10T09:43:41.822Z,85.49
2022-08-10T09:46:21.392Z,85.42
2022-08-10T09:49:06.857Z,83.57
2022-08-10T09:51:47.900Z,83.10
2022-08-10T09:54:34.104Z,83.09
2022-08-10T09:57:44.422Z,82.33
2022-08-10T10:00:10.933Z,80.65
2022-08-10T10:03:04.530Z,78.54
2022-08-10T10:05:50.394Z,79.89
2022-08-10T10:08:42.793Z,79.18
2022-08-10T10:11:19.033Z,78.06
2022-08-10T10:14:04.577Z,76.97
2022-08-10T10:16:44.630Z,77.29
2022-08-10T10:19:25.621Z,78.56
2022-08-10T10:22:08.900Z,75.93
2022-08-10T10:24:46.648Z,76.60
2022-08-10T10:27:23.892Z,77.18
2022-08-10T10:30:03.252Z,77.71
2022-08-10T10:32:45.890Z,77.75
2022-08-10T10:35:24.522Z,79.04
2022-08-10T10:38:01.297Z,77.26
2022-08-10T10:40:40.423Z,78.11
2022-08-10T10:43:27.170Z,77.25
2022-08-10T10:46:07.304Z,77.80
2022-08-10T10:48:42.568Z,77.12
2022-08-10T10:51:17.856Z,75.51
2022-08-10T10:53:54.286Z,74.63
2022-08-10T10:56:31.844Z,75.54
2022-08-10T10:59:53.924Z,74.30
2022-08-10T11:02:22.436Z,72.93
2022-08-10T11:05:03.745Z,73.63
2022-08-10T11:07:38.504Z,74.71
2022-08-10T11:10:32.764Z,74.48
2022-08-10T11:14:27.631Z,74.95
2022-08-10T11:16:17.947Z,73.19
2022-08-10T11:19:04.526Z,73.55
2022-08-10T11:21:44.194Z,74.31
2022-08-10T11:24:47.112Z,74.29
2022-08-10T11:27:22.217Z,74.75
2022-08-10T11:30:01.694Z,73.42
2022-08-10T11:32:38.099Z,74.03
2022-08-10T11:35:21.453Z,73.64
2022-08-10T11:38:30.926Z,73.58
2022-08-10T11:41:00.090Z,72.32
2022-08-10T11:43:57.959Z,68.68
2022-08-10T11:46:35.568Z,66.99
2022-08-10T11:49:09.476Z,68.47
2022-08-10T11:51:51.207Z,68.31
2022-08-10T11:54:30.349Z,67.57
2022-08-10T11:57:02.883Z,67.28
2022-08-10T11:59:57.911Z,67.34
2022-08-10T12:02:33.816Z,68.37
2022-08-10T12:05:09.005Z,68.31
2022-08-10T12:10:03.548Z,69.52
2022-08-10T12:10:34.450Z,66.81
2022-08-10T12:13:12.492Z,68.21
2022-08-10T12:15:59.153Z,68.51
2022-08-10T12:18:35.004Z,65.98
2022-08-10T12:21:23.365Z,67.60
2022-08-10T12:24:02.489Z,67.79
2022-08-10T12:26:38.817Z,67.26
2022-08-10T12:29:15.400Z,66.71
2022-08-10T12:31:49.586Z,65.90
2022-08-10T12:34:24.386Z,65.37
2022-08-10T12:37:01.723Z,63.76
2022-08-10T12:39:44.538Z,62.27
2022-08-10T12:42:37.066Z,62.83
2022-08-10T12:45:21.978Z,60.99
2022-08-10T12:47:59.797Z,61.47
2022-08-10T12:50:39.549Z,64.02
2022-08-10T12:53:18.849Z,62.22
2022-08-10T12:55:50.820Z,61.96
2022-08-10T12:58:57.564Z,61.27
2022-08-10T13:01:16.920Z,61.38
2022-08-10T13:04:21.541Z,61.31
2022-08-10T13:06:41.578Z,60.84
2022-08-10T13:09:10.381Z,61.27
2022-08-10T13:12:34.808Z,60.67
2022-08-10T13:14:39.481Z,58.77
2022-08-10T13:17:09.196Z,59.21
2022-08-10T13:19:56.321Z,60.10
2022-08-10T13:22:31.480Z,60.18
2022-08-10T13:25:04.078Z,58.11
2022-08-10T13:28:00.615Z,58.72
2022-08-10T13:30:38.430Z,58.59
2022-08-10T13:33:08.495Z,56.69
2022-08-10T13:35:38.498Z,57.83
2022-08-10T13:38:09.342Z,55.23
2022-08-10T13:40:39.800Z,53.78
2022-08-10T13:43:11.304Z,54.84
2022-08-10T13:45:46.267Z,55.28
2022-08-10T13:48:20.885Z,55.30
2022-08-10T13:50:53.269Z,55.67
2022-08-10T13:53:23.368Z,55.17
2022-08-10T13:55:56.554Z,54.55
2022-08-10T13:58:29.852Z,52.34
2022-08-10T14:00:59.965Z,54.60
2022-08-10T14:03:29.905Z,54.36
2022-08-10T14:05:59.577Z,54.17
2022-08-10T14:08:32.282Z,53.79
2022-08-10T14:11:12.711Z,55.11
2022-08-10T14:13:52.539Z,53.21
2022-08-10T14:16:23.730Z,52.65
2022-08-10T14:18:55.414Z,52.59
2022-08-10T14:21:24.001Z,52.54
2022-08-10T14:23:53.851Z,52.14
2022-08-10T14:26:26.388Z,52.12
2022-08-10T14:29:03.237Z,52.37
2022-08-10T14:31:34.450Z,51.81
2022-08-10T14:34:09.284Z,51.83
2022-08-10T14:36:43.251Z,51.99
2022-08-10T14:39:20.487Z,51.25
2022-08-10T14:42:01.355Z,50.57
2022-08-10T14:44:47.265Z,50.82
2022-08-10T14:47:51.714Z,50.40
2022-08-10T14:50:08.744Z,50.77
2022-08-10T14:52:44.062Z,51.08
2022-08-10T14:55:19.379Z,49.39
2022-08-10T14:58:19.534Z,50.06
2022-08-10T15:00:43.109Z,49.41
2022-08-10T15:04:02.119Z,49.05
2022-08-10T15:06:17.042Z,49.27
2022-08-10T15:08:47.798Z,48.55
2022-08-10T15:12:15.020Z,48.58
2022-08-10T15:14:33.254Z,48.12
2022-08-10T15:17:00.453Z,47.53
2022-08-10T15:20:02.230Z,46.65
2022-08-10T15:22:37.184Z,46.63
2022-08-10T15:25:18.045Z,45.41
2022-08-10T15:27:54.334Z,46.03
2022-08-10T15:30:31.556Z,46.91
2022-08-10T15:34:02.606Z,46.40
2022-08-10T15:36:35.589Z,46.56
2022-08-10T15:39:16.401Z,46.91
2022-08-10T15:42:03.740Z,44.75
2022-08-10T15:44:38.189Z,46.31
2022-08-10T15:47:10.492Z,44.99
2022-08-10T15:49:48.800Z,45.59
2022-08-10T15:52:39.062Z,45.33
2022-08-10T15:55:42.551Z,44.48
2022-08-10T15:58:07.880Z,44.47
2022-08-10T16:00:45.292Z,45.24
2022-08-10T16:03:23.751Z,45.45
2022-08-10T16:06:01.988Z,45.42
2022-08-10T16:08:55.837Z,44.67
2022-08-10T16:11:38.194Z,44.58
2022-08-10T16:14:12.948Z,43.98
2022-08-10T16:16:43.069Z,44.37
2022-08-10T16:19:23.790Z,44.51
2022-08-10T16:22:34.439Z,45.24
2022-08-10T16:24:58.286Z,44.31
2022-08-10T16:27:29.044Z,44.29
2022-08-10T16:30:00.601Z,43.16
2022-08-10T16:32:31.948Z,43.37
2022-08-10T16:35:08.947Z,43.70
2022-08-10T16:37:58.794Z,43.88
2022-08-10T16:40:30.266Z,43.36
2022-08-10T16:43:01.044Z,43.29
2022-08-10T16:45:36.415Z,43.20
2022-08-10T16:48:07.006Z,43.18
2022-08-10T16:50:41.530Z,43.36
2022-08-10T16:53:15.432Z,42.92
2022-08-10T16:55:50.603Z,42.98
2022-08-10T16:58:22.475Z,42.58
2022-08-10T17:00:51.856Z,42.79
2022-08-10T17:04:08.196Z,42.83
2022-08-10T17:06:23.546Z,42.28
2022-08-10T17:08:56.742Z,42.35
2022-08-10T17:11:31.018Z,42.75
2022-08-10T17:14:00.994Z,42.16
2022-08-10T17:16:35.732Z,42.91
2022-08-10T17:19:08.622Z,42.64
2022-08-10T17:21:51.941Z,42.72
2022-08-10T17:24:27.590Z,42.40
2022-08-10T17:26:59.388Z,42.42
2022-08-10T17:29:58.279Z,41.67
2022-08-10T17:32:33.094Z,42.45
2022-08-10T17:35:16.130Z,42.08
2022-08-10T17:37:48.565Z,42.11
2022-08-10T17:40:22.349Z,42.51
2022-08-10T17:42:51.950Z,41.99
2022-08-10T17:45:47.841Z,42.14
2022-08-10T17:48:12.239Z,41.63
2022-08-10T17:50:42.781Z,41.93
2022-08-10T17:53:17.115Z,42.01
2022-08-10T17:55:49.483Z,42.09
2022-08-10T17:58:20.911Z,42.05
2022-08-10T18:00:52.158Z,41.93
2022-08-10T18:03:25.253Z,41.70
2022-08-10T18:05:56.276Z,42.05
2022-08-10T18:08:28.833Z,42.10
2022-08-10T18:10:59.985Z,42.35
2022-08-10T18:13:55.879Z,42.18
2022-08-10T18:16:25.828Z,42.40
2022-08-10T18:19:00.092Z,42.25
2022-08-10T18:21:31.911Z,42.69
2022-08-10T18:24:04.497Z,42.57
2022-08-10T18:26:38.412Z,42.37
2022-08-10T18:29:10.065Z,43.06
2022-08-10T18:31:39.751Z,42.56
2022-08-10T18:34:12.947Z,42.48
2022-08-10T18:36:43.267Z,42.73
2022-08-10T18:39:13.701Z,42.71
2022-08-10T18:42:00.789Z,42.77
2022-08-10T18:44:37.253Z,42.81
2022-08-10T18:47:10.710Z,42.96
2022-08-10T18:49:51.348Z,42.95
2022-08-10T18:52:24.035Z,42.87
2022-08-10T18:54:56.839Z,43.20
2022-08-10T18:57:41.859Z,43.11
2022-08-10T19:00:12.985Z,43.10
2022-08-10T19:03:01.701Z,43.06
2022-08-10T19:05:48.536Z,43.15
2022-08-10T19:08:49.091Z,43.50
2022-08-10T19:11:28.394Z,43.92
2022-08-10T19:14:03.901Z,43.78
2022-08-10T19:16:42.081Z,44.06
2022-08-10T19:19:30.101Z,43.64
2022-08-10T19:22:05.665Z,43.79
2022-08-10T19:24:47.027Z,44.26
2022-08-10T19:27:30.095Z,44.25
2022-08-10T19:30:11.636Z,44.42
2022-08-10T19:33:07.161Z,44.60
2022-08-10T19:36:03.051Z,44.12
2022-08-10T19:38:50.301Z,44.50
2022-08-10T19:41:32.481Z,44.26
2022-08-10T19:44:16.595Z,44.19
2022-08-10T19:46:55.884Z,44.27
2022-08-10T19:49:39.933Z,44.47
2022-08-10T19:52:15.171Z,44.60
2022-08-10T19:54:56.618Z,44.43
2022-08-10T19:57:34.484Z,44.58
2022-08-10T20:00:19.309Z,44.72
2022-08-10T20:03:12.196Z,44.64
2022-08-10T20:06:12.961Z,44.81
2022-08-10T20:08:45.193Z,45.16
2022-08-10T20:11:46.155Z,45.12
2022-08-10T20:14:22.314Z,45.33
2022-08-10T20:16:55.965Z,44.72
2022-08-10T20:19:53.977Z,44.93
2022-08-10T20:22:29.388Z,44.79
2022-08-10T20:25:05.269Z,45.42
2022-08-10T20:27:58.947Z,45.21
2022-08-10T20:30:30.026Z,45.46
2022-08-10T20:33:05.279Z,45.33
2022-08-10T20:35:48.386Z,45.70
2022-08-10T20:38:27.150Z,45.50
2022-08-10T20:41:07.200Z,45.66
2022-08-10T20:43:42.670Z,45.92
2022-08-10T20:46:25.494Z,45.61
2022-08-10T20:49:00.500Z,45.27
2022-08-10T20:51:58.723Z,45.92
2022-08-10T20:54:32.899Z,45.39
2022-08-10T20:57:55.135Z,45.57
2022-08-10T21:00:13.783Z,45.87
2022-08-10T21:03:20.738Z,45.77
2022-08-10T21:05:59.910Z,45.78
2022-08-10T21:08:42.998Z,46.11
2022-08-10T21:11:19.696Z,46.15
2022-08-10T21:14:01.963Z,46.26
2022-08-10T21:16:41.619Z,46.21
2022-08-10T21:19:35.991Z,46.07
2022-08-10T21:22:15.595Z,46.29
2022-08-10T21:24:52.202Z,46.31
2022-08-10T21:27:41.271Z,46.16
2022-08-10T21:30:11.055Z,46.34
2022-08-10T21:32:48.839Z,46.68
2022-08-10T21:35:37.461Z,46.62
2022-08-10T21:38:16.737Z,46.67
2022-08-10T21:41:17.862Z,46.55
2022-08-10T21:44:16.612Z,46.91
2022-08-10T21:47:10.118Z,46.90
2022-08-10T21:50:07.500Z,46.81
2022-08-10T21:53:04.256Z,46.86
2022-08-10T21:56:02.463Z,47.19
2022-08-10T21:58:54.271Z,47.13
2022-08-10T22:01:51.431Z,47.36
2022-08-10T22:04:40.184Z,47.30
2022-08-10T22:07:36.250Z,47.29
2022-08-10T22:10:25.885Z,47.36
2022-08-10T22:13:19.922Z,47.55
2022-08-10T22:16:12.199Z,47.65
2022-08-10T22:19:14.554Z,47.56
2022-08-10T22:22:26.903Z,47.85
2022-08-10T22:25:31.930Z,47.99
2022-08-10T22:28:19.564Z,47.97
2022-08-10T22:31:30.879Z,47.98
2022-08-10T22:34:33.417Z,48.01
2022-08-10T22:37:33.999Z,48.30
2022-08-10T22:40:25.676Z,48.27
2022-08-10T22:43:14.425Z,48.28
2022-08-10T22:46:24.953Z,48.53
2022-08-10T22:49:01.764Z,48.73
2022-08-10T22:51:38.234Z,48.80
2022-08-10T22:54:31.922Z,48.74
2022-08-10T22:57:19.840Z,48.98
2022-08-10T22:59:50.191Z,48.67
2022-08-10T23:02:31.623Z,48.72
2022-08-10T23:05:11.622Z,49.02
2022-08-10T23:07:48.295Z,49.00
2022-08-10T23:10:22.566Z,49.12
2022-08-10T23:12:52.519Z,49.10
2022-08-10T23:15:44.132Z,49.04
2022-08-10T23:18:37.557Z,49.28
2022-08-10T23:21:12.259Z,49.50
2022-08-10T23:23:43.580Z,49.51
2022-08-10T23:26:16.162Z,49.26
2022-08-10T23:28:59.217Z,49.59
2022-08-10T23:32:00.890Z,49.57
2022-08-10T23:34:27.645Z,49.87
2022-08-10T23:36:58.436Z,50.27
2022-08-10T23:39:35.565Z,50.37
2022-08-10T23:42:08.451Z,50.50
2022-08-10T23:44:45.711Z,50.61
2022-08-10T23:47:16.895Z,50.55
2022-08-10T23:49:50.949Z,51.12
2022-08-10T23:52:23.402Z,51.23
2022-08-10T23:54:57.074Z,51.31
2022-08-10T23:57:28.766Z,51.88
